createdAt,value
2018-09-10T00:00:56.803Z,9.63
2018-09-10T00:01:56.707Z,9.56
2018-09-10T00:02:56.647Z,9.52
2018-09-10T00:03:56.907Z,9.64
2018-09-10T00:04:56.532Z,9.64
2018-09-10T00:05:56.550Z,9.5
2018-09-10T00:06:56.527Z,9.54
2018-09-10T00:07:56.892Z,9.61
2018-09-10T00:08:56.530Z,9.62
2018-09-10T00:09:56.568Z,9.6
2018-09-10T00:10:56.643Z,9.63
2018-09-10T00:11:56.539Z,9.6
2018-09-10T00:12:56.524Z,9.49
2018-09-10T00:13:56.525Z,9.69
2018-09-10T00:14:56.582Z,9.6
2018-09-10T00:15:56.526Z,9.62
2018-09-10T00:16:56.580Z,9.59
2018-09-10T00:17:56.603Z,9.62
2018-09-10T00:18:56.569Z,9.54
2018-09-10T00:19:56.513Z,9.5
2018-09-10T00:20:56.503Z,9.54
2018-09-10T00:21:56.521Z,9.49
2018-09-10T00:22:56.521Z,9.62
2018-09-10T00:23:56.518Z,9.54
2018-09-10T00:24:56.522Z,9.43
2018-09-10T00:25:56.612Z,9.54
2018-09-10T00:26:56.525Z,9.51
2018-09-10T00:27:56.620Z,9.48
2018-09-10T00:28:56.822Z,9.42
2018-09-10T00:29:56.535Z,9.52
2018-09-10T00:30:56.599Z,9.62
2018-09-10T00:31:56.556Z,9.46
2018-09-10T00:32:56.584Z,9.48
2018-09-10T00:33:56.569Z,9.27
2018-09-10T00:34:57.188Z,9.38
2018-09-10T00:35:56.637Z,9.32
2018-09-10T00:36:56.715Z,9.39
2018-09-10T00:37:56.602Z,9.4
2018-09-10T00:38:56.612Z,9.33
2018-09-10T00:39:56.639Z,9.5
2018-09-10T00:40:56.672Z,9.44
2018-09-10T00:41:56.752Z,9.28
2018-09-10T00:42:56.644Z,9.45
2018-09-10T00:43:56.578Z,9.33
2018-09-10T00:44:56.623Z,9.39
2018-09-10T00:45:56.515Z,9.22
2018-09-10T00:46:56.541Z,9.41
2018-09-10T00:47:56.618Z,9.56
2018-09-10T00:48:56.875Z,9.4
2018-09-10T00:49:56.562Z,9.46
2018-09-10T00:50:56.542Z,9.3
2018-09-10T00:51:56.604Z,9.3
2018-09-10T00:52:56.593Z,9.38
2018-09-10T00:53:56.616Z,9.28
2018-09-10T00:54:56.997Z,9.24
2018-09-10T00:55:56.631Z,9.36
2018-09-10T00:56:56.580Z,9.37
2018-09-10T00:57:56.544Z,9.28
2018-09-10T00:58:56.756Z,9.48
2018-09-10T00:59:56.749Z,9.34
2018-09-10T01:00:56.590Z,9.37
2018-09-10T01:01:56.660Z,9.36
2018-09-10T01:02:56.555Z,9.39
2018-09-10T01:03:56.629Z,9.37
2018-09-10T01:04:56.617Z,9.38
2018-09-10T01:05:56.571Z,9.28
2018-09-10T01:06:56.564Z,9.37
2018-09-10T01:07:56.657Z,9.34
2018-09-10T01:08:56.554Z,9.4
2018-09-10T01:09:56.566Z,9.4
2018-09-10T01:10:56.557Z,9.33
2018-09-10T01:11:56.552Z,9.33
2018-09-10T01:12:56.868Z,9.18
2018-09-10T01:13:56.625Z,9.3
2018-09-10T01:14:56.947Z,9.2
2018-09-10T01:15:56.739Z,9.17
2018-09-10T01:16:56.700Z,9.23
2018-09-10T01:17:57.268Z,9.31
2018-09-10T01:18:56.579Z,9.33
2018-09-10T01:19:56.666Z,9.28
2018-09-10T01:20:56.566Z,9.21
2018-09-10T01:21:56.699Z,9.32
2018-09-10T01:22:56.730Z,9.32
2018-09-10T01:23:56.586Z,9.19
2018-09-10T01:24:56.619Z,9.13
2018-09-10T01:25:56.582Z,9.25
2018-09-10T01:26:56.923Z,9.32
2018-09-10T01:27:56.613Z,9.25
2018-09-10T01:28:56.664Z,9.22
2018-09-10T01:29:56.584Z,9.29
2018-09-10T01:30:56.591Z,9.34
2018-09-10T01:31:56.668Z,9.21
2018-09-10T01:32:56.581Z,9.2
2018-09-10T01:33:56.584Z,9.13
2018-09-10T01:34:56.574Z,9.24
2018-09-10T01:35:56.627Z,9.31
2018-09-10T01:36:56.665Z,9.14
2018-09-10T01:37:56.585Z,9.18
2018-09-10T01:38:56.577Z,9.16
2018-09-10T01:39:56.602Z,9.31
2018-09-10T01:40:56.568Z,9.26
2018-09-10T01:41:56.591Z,9.03
2018-09-10T01:42:56.590Z,9.14
2018-09-10T01:43:56.630Z,9.26
2018-09-10T01:44:56.661Z,9.29
2018-09-10T01:45:56.612Z,9.13
2018-09-10T01:46:56.556Z,9.11
2018-09-10T01:47:56.579Z,9.09
2018-09-10T01:48:56.619Z,9.14
2018-09-10T01:49:56.649Z,9.27
2018-09-10T01:50:56.655Z,9.18
2018-09-10T01:51:56.590Z,9.37
2018-09-10T01:52:56.594Z,9.25
2018-09-10T01:53:56.602Z,9.11
2018-09-10T01:54:56.645Z,9.25
2018-09-10T01:55:56.585Z,9.09
2018-09-10T01:56:56.591Z,9.25
2018-09-10T01:57:56.937Z,9.28
2018-09-10T01:58:56.759Z,9.23
2018-09-10T01:59:56.596Z,9.3
2018-09-10T02:00:56.582Z,9.11
2018-09-10T02:01:56.590Z,9.15
2018-09-10T02:02:56.594Z,9.25
2018-09-10T02:03:56.647Z,9.1
2018-09-10T02:04:56.648Z,9.21
2018-09-10T02:05:56.805Z,9.07
2018-09-10T02:06:56.589Z,9.22
2018-09-10T02:07:56.682Z,9.13
2018-09-10T02:08:56.596Z,9.14
2018-09-10T02:09:56.645Z,9.2
2018-09-10T02:10:56.704Z,9.29
2018-09-10T02:11:56.624Z,9.16
2018-09-10T02:12:56.770Z,8.99
2018-09-10T02:13:56.617Z,9.05
2018-09-10T02:14:56.948Z,9.14
2018-09-10T02:15:56.665Z,9.04
2018-09-10T02:16:57.054Z,9.14
2018-09-10T02:17:56.591Z,9.08
2018-09-10T02:18:56.818Z,9.15
2018-09-10T02:19:56.806Z,9.17
2018-09-10T02:20:56.687Z,9.07
2018-09-10T02:21:56.640Z,8.96
2018-09-10T02:22:56.583Z,9.07
2018-09-10T02:23:56.603Z,9.09
2018-09-10T02:24:56.602Z,9.07
2018-09-10T02:25:56.618Z,9.07
2018-09-10T02:26:56.798Z,9.08
2018-09-10T02:27:56.665Z,9.12
2018-09-10T02:28:56.674Z,9.2
2018-09-10T02:29:57.053Z,9.23
2018-09-10T02:30:56.768Z,9.11
2018-09-10T02:31:56.720Z,9.09
2018-09-10T02:32:56.755Z,9.1
2018-09-10T02:33:56.804Z,9.18
2018-09-10T02:34:56.705Z,9.16
2018-09-10T02:35:57.087Z,9.2
2018-09-10T02:36:56.684Z,9
2018-09-10T02:37:56.608Z,9.1
2018-09-10T02:38:56.766Z,9.18
2018-09-10T02:39:57.493Z,9.12
2018-09-10T02:40:57.036Z,9
2018-09-10T02:41:56.634Z,9.02
2018-09-10T02:42:56.716Z,8.91
2018-09-10T02:43:56.635Z,9.08
2018-09-10T02:44:57.019Z,9.16
2018-09-10T02:45:56.675Z,9.13
2018-09-10T02:46:56.629Z,9.15
2018-09-10T02:47:56.948Z,9.04
2018-09-10T02:48:56.616Z,9.03
2018-09-10T02:49:56.605Z,9.13
2018-09-10T02:50:56.853Z,9.02
2018-09-10T02:51:56.640Z,9.03
2018-09-10T02:52:56.705Z,8.98
2018-09-10T02:53:56.663Z,8.98
2018-09-10T02:54:56.809Z,9.03
2018-09-10T02:55:56.619Z,9.1
2018-09-10T02:56:56.749Z,9.07
2018-09-10T02:57:56.752Z,9.12
2018-09-10T02:58:56.629Z,9.11
2018-09-10T02:59:56.603Z,9.1
2018-09-10T03:00:56.635Z,9.07
2018-09-10T03:01:56.621Z,9.18
2018-09-10T03:02:56.643Z,9.15
2018-09-10T03:03:56.622Z,9.04
2018-09-10T03:04:56.642Z,9.05
2018-09-10T03:05:56.616Z,9.14
2018-09-10T03:06:56.767Z,9.12
2018-09-10T03:07:56.665Z,9.08
2018-09-10T03:08:56.631Z,9.1
2018-09-10T03:09:56.676Z,9.03
2018-09-10T03:10:56.730Z,9.2
2018-09-10T03:11:56.689Z,8.95
2018-09-10T03:12:56.664Z,9.01
2018-09-10T03:13:56.667Z,9.04
2018-09-10T03:14:56.645Z,9.06
2018-09-10T03:15:56.666Z,9.07
2018-09-10T03:16:57.291Z,9.02
2018-09-10T03:17:56.980Z,9.12
2018-09-10T03:18:56.758Z,9.01
2018-09-10T03:19:57.086Z,9.09
2018-09-10T03:20:56.748Z,8.92
2018-09-10T03:21:56.706Z,9.04
2018-09-10T03:22:56.774Z,9.14
2018-09-10T03:23:57.185Z,9
2018-09-10T03:24:56.616Z,9.02
2018-09-10T03:25:57.440Z,8.93
2018-09-10T03:26:56.779Z,8.88
2018-09-10T03:27:56.957Z,9.04
2018-09-10T03:28:56.786Z,8.98
2018-09-10T03:29:56.647Z,8.98
2018-09-10T03:30:56.670Z,8.91
2018-09-10T03:31:57.176Z,8.94
2018-09-10T03:32:56.740Z,9.04
2018-09-10T03:33:56.747Z,8.92
2018-09-10T03:34:56.986Z,9.07
2018-09-10T03:35:56.860Z,8.99
2018-09-10T03:36:56.664Z,8.99
2018-09-10T03:37:56.643Z,8.93
2018-09-10T03:38:56.690Z,9.04
2018-09-10T03:39:56.671Z,9
2018-09-10T03:40:56.928Z,8.92
2018-09-10T03:41:56.695Z,8.86
2018-09-10T03:42:56.634Z,8.95
2018-09-10T03:43:56.668Z,8.89
2018-09-10T03:44:56.691Z,9.02
2018-09-10T03:45:57.092Z,9.03
2018-09-10T03:46:56.648Z,8.94
2018-09-10T03:47:56.693Z,9.02
2018-09-10T03:48:56.751Z,9
2018-09-10T03:49:56.789Z,9.03
2018-09-10T03:50:56.644Z,9.05
2018-09-10T03:51:56.696Z,9.01
2018-09-10T03:52:56.977Z,9.02
2018-09-10T03:53:57.322Z,8.91
2018-09-10T03:54:56.853Z,9.06
2018-09-10T03:55:56.678Z,9.14
2018-09-10T03:56:56.652Z,9.01
2018-09-10T03:57:56.854Z,9.02
2018-09-10T03:58:56.708Z,9.08
2018-09-10T03:59:56.662Z,9.02
2018-09-10T04:00:56.918Z,8.96
2018-09-10T04:01:56.696Z,8.97
2018-09-10T04:02:56.714Z,8.81
2018-09-10T04:03:58.120Z,9.03
2018-09-10T04:04:56.684Z,9.14
2018-09-10T04:05:57.091Z,9.09
2018-09-10T04:06:56.661Z,9.05
2018-09-10T04:07:56.667Z,9.08
2018-09-10T04:08:56.800Z,8.89
2018-09-10T04:09:56.681Z,9.01
2018-09-10T04:10:56.771Z,8.86
2018-09-10T04:11:56.696Z,8.84
2018-09-10T04:12:57.155Z,9.01
2018-09-10T04:13:56.907Z,8.97
2018-09-10T04:14:56.692Z,8.87
2018-09-10T04:15:56.686Z,8.95
2018-09-10T04:16:56.892Z,8.99
2018-09-10T04:17:56.797Z,8.93
2018-09-10T04:18:56.784Z,9
2018-09-10T04:19:56.893Z,8.98
2018-09-10T04:20:56.672Z,8.85
2018-09-10T04:21:56.869Z,8.87
2018-09-10T04:22:56.692Z,8.86
2018-09-10T04:23:56.734Z,8.88
2018-09-10T04:24:56.678Z,8.86
2018-09-10T04:25:57.045Z,8.81
2018-09-10T04:26:56.779Z,8.91
2018-09-10T04:27:56.707Z,8.88
2018-09-10T04:28:56.764Z,8.89
2018-09-10T04:29:56.713Z,8.85
2018-09-10T04:30:56.716Z,8.85
2018-09-10T04:31:56.760Z,8.86
2018-09-10T04:32:56.754Z,8.83
2018-09-10T04:33:56.699Z,8.8
2018-09-10T04:34:57.094Z,8.81
2018-09-10T04:35:57.075Z,8.86
2018-09-10T04:36:57.084Z,8.8
2018-09-10T04:37:56.665Z,8.68
2018-09-10T04:38:56.683Z,8.81
2018-09-10T04:39:56.706Z,8.91
2018-09-10T04:40:56.679Z,8.74
2018-09-10T04:41:56.726Z,8.83
2018-09-10T04:42:56.714Z,8.75
2018-09-10T04:43:56.722Z,8.81
2018-09-10T04:44:56.693Z,8.82
2018-09-10T04:45:57.171Z,8.76
2018-09-10T04:46:56.718Z,8.72
2018-09-10T04:47:57.061Z,8.76
2018-09-10T04:48:56.678Z,8.73
2018-09-10T04:49:56.816Z,8.76
2018-09-10T04:50:56.763Z,8.77
2018-09-10T04:51:56.710Z,8.79
2018-09-10T04:52:56.659Z,8.77
2018-09-10T04:53:56.815Z,8.81
2018-09-10T04:54:56.721Z,8.81
2018-09-10T04:55:56.668Z,8.7
2018-09-10T04:56:56.726Z,8.82
2018-09-10T04:57:56.973Z,8.85
2018-09-10T04:58:56.689Z,8.87
2018-09-10T04:59:56.740Z,8.77
2018-09-10T05:00:56.688Z,8.76
2018-09-10T05:01:56.782Z,8.86
2018-09-10T05:02:56.675Z,8.84
2018-09-10T05:03:56.890Z,8.83
2018-09-10T05:04:56.705Z,8.84
2018-09-10T05:05:56.692Z,8.78
2018-09-10T05:06:56.792Z,8.83
2018-09-10T05:07:57.118Z,8.75
2018-09-10T05:08:57.124Z,8.77
2018-09-10T05:09:57.178Z,8.81
2018-09-10T05:10:56.740Z,8.84
2018-09-10T05:11:56.668Z,8.79
2018-09-10T05:13:03.969Z,8.8
2018-09-10T05:13:56.688Z,8.77
2018-09-10T05:14:56.676Z,8.84
2018-09-10T05:15:56.692Z,8.77
2018-09-10T05:16:56.760Z,8.84
2018-09-10T05:17:56.745Z,8.85
2018-09-10T05:18:57.075Z,8.86
2018-09-10T05:19:56.768Z,8.89
2018-09-10T05:20:56.709Z,8.81
2018-09-10T05:21:57.276Z,8.88
2018-09-10T05:22:56.705Z,8.81
2018-09-10T05:23:57.001Z,8.79
2018-09-10T05:24:56.835Z,8.88
2018-09-10T05:25:56.771Z,8.81
2018-09-10T05:26:57.126Z,8.83
2018-09-10T05:27:56.859Z,8.8
2018-09-10T05:28:57.065Z,8.89
2018-09-10T05:29:56.729Z,8.88
2018-09-10T05:30:56.726Z,8.82
2018-09-10T05:31:56.740Z,8.82
2018-09-10T05:32:56.838Z,8.94
2018-09-10T05:33:56.723Z,8.95
2018-09-10T05:34:57.086Z,8.92
2018-09-10T05:35:56.795Z,8.9
2018-09-10T05:36:56.712Z,8.79
2018-09-10T05:37:56.712Z,8.95
2018-09-10T05:38:56.768Z,8.92
2018-09-10T05:39:57.340Z,8.99
2018-09-10T05:40:56.755Z,9.06
2018-09-10T05:41:56.733Z,9
2018-09-10T05:42:56.831Z,8.85
2018-09-10T05:43:56.735Z,9
2018-09-10T05:44:56.807Z,8.95
2018-09-10T05:45:56.703Z,8.92
2018-09-10T05:46:57.091Z,8.9
2018-09-10T05:47:56.872Z,8.85
2018-09-10T05:48:56.742Z,9.01
2018-09-10T05:49:56.772Z,8.99
2018-09-10T05:50:56.915Z,9.08
2018-09-10T05:51:56.802Z,9.02
2018-09-10T05:52:56.751Z,8.97
2018-09-10T05:53:56.868Z,9.13
2018-09-10T05:54:56.783Z,9.15
2018-09-10T05:55:56.799Z,9.13
2018-09-10T05:56:56.728Z,9.29
2018-09-10T05:57:56.771Z,9.21
2018-09-10T05:58:56.775Z,9.21
2018-09-10T05:59:56.755Z,9.12
2018-09-10T06:00:57.188Z,9.28
2018-09-10T06:01:56.704Z,9.34
2018-09-10T06:02:56.850Z,9.34
2018-09-10T06:03:56.916Z,9.25
2018-09-10T06:04:56.741Z,9.22
2018-09-10T06:05:56.809Z,9.37
2018-09-10T06:06:56.775Z,9.28
2018-09-10T06:07:56.808Z,9.41
2018-09-10T06:08:56.871Z,9.28
2018-09-10T06:09:56.847Z,9.44
2018-09-10T06:10:56.812Z,9.35
2018-09-10T06:11:56.849Z,9.36
2018-09-10T06:12:57.143Z,9.5
2018-09-10T06:13:56.897Z,9.42
2018-09-10T06:14:56.966Z,9.51
2018-09-10T06:15:56.908Z,9.5
2018-09-10T06:16:56.886Z,9.6
2018-09-10T06:17:56.832Z,9.67
2018-09-10T06:18:56.761Z,9.55
2018-09-10T06:19:56.741Z,9.72
2018-09-10T06:20:56.754Z,9.74
2018-09-10T06:21:56.730Z,9.72
2018-09-10T06:22:56.800Z,9.64
2018-09-10T06:23:56.853Z,9.72
2018-09-10T06:24:56.769Z,9.69
2018-09-10T06:25:56.820Z,9.66
2018-09-10T06:26:56.830Z,9.64
2018-09-10T06:27:56.758Z,9.78
2018-09-10T06:28:56.761Z,9.72
2018-09-10T06:29:56.734Z,9.73
2018-09-10T06:30:57.163Z,9.71
2018-09-10T06:31:57.171Z,9.75
2018-09-10T06:32:57.067Z,9.76
2018-09-10T06:33:56.899Z,9.85
2018-09-10T06:34:56.984Z,9.72
2018-09-10T06:35:56.750Z,9.82
2018-09-10T06:36:57.422Z,9.77
2018-09-10T06:37:56.728Z,9.83
2018-09-10T06:38:57.109Z,9.9
2018-09-10T06:39:56.835Z,9.95
2018-09-10T06:40:56.852Z,9.99
2018-09-10T06:41:57.129Z,10
2018-09-10T06:42:56.826Z,9.88
2018-09-10T06:43:57.081Z,10
2018-09-10T06:44:56.755Z,9.94
2018-09-10T06:45:56.828Z,10.01
2018-09-10T06:46:57.173Z,10.03
2018-09-10T06:47:57.185Z,10
2018-09-10T06:48:57.109Z,10.03
2018-09-10T06:49:56.777Z,10.01
2018-09-10T06:50:56.759Z,10.07
2018-09-10T06:51:56.759Z,10.11
2018-09-10T06:52:56.823Z,10.06
2018-09-10T06:53:56.811Z,10.06
2018-09-10T06:55:00.119Z,10.12
2018-09-10T06:55:56.788Z,10.14
2018-09-10T06:56:56.747Z,10.13
2018-09-10T06:57:57.057Z,10.26
2018-09-10T06:58:56.777Z,10.19
2018-09-10T06:59:56.771Z,10.15
2018-09-10T07:00:57.064Z,10.24
2018-09-10T07:01:56.793Z,10.29
2018-09-10T07:02:56.761Z,10.23
2018-09-10T07:03:56.765Z,10.31
2018-09-10T07:04:57.061Z,10.28
2018-09-10T07:05:56.909Z,10.37
2018-09-10T07:06:56.823Z,10.33
2018-09-10T07:07:56.915Z,10.33
2018-09-10T07:08:56.748Z,10.35
2018-09-10T07:09:56.786Z,10.37
2018-09-10T07:10:57.247Z,10.42
2018-09-10T07:11:56.957Z,10.37
2018-09-10T07:12:57.002Z,10.39
2018-09-10T07:13:56.808Z,10.35
2018-09-10T07:14:56.773Z,10.38
2018-09-10T07:15:56.847Z,10.38
2018-09-10T07:16:56.888Z,10.45
2018-09-10T07:17:56.834Z,10.38
2018-09-10T07:18:57.141Z,10.51
2018-09-10T07:19:56.746Z,10.48
2018-09-10T07:20:56.808Z,10.49
2018-09-10T07:21:56.825Z,10.46
2018-09-10T07:22:57.101Z,10.45
2018-09-10T07:23:56.775Z,10.4
2018-09-10T07:24:56.757Z,10.51
2018-09-10T07:25:57.345Z,10.55
2018-09-10T07:26:57.127Z,10.61
2018-09-10T07:27:57.041Z,10.67
2018-09-10T07:28:57.311Z,10.62
2018-09-10T07:29:56.850Z,10.63
2018-09-10T07:30:57.127Z,10.64
2018-09-10T07:31:57.115Z,10.67
2018-09-10T07:32:56.863Z,10.63
2018-09-10T07:33:57.006Z,10.69
2018-09-10T07:34:56.777Z,10.63
2018-09-10T07:35:56.792Z,10.61
2018-09-10T07:36:56.822Z,10.64
2018-09-10T07:37:56.843Z,10.64
2018-09-10T07:38:56.849Z,10.69
2018-09-10T07:39:56.831Z,10.8
2018-09-10T07:40:56.922Z,10.62
2018-09-10T07:41:56.805Z,10.78
2018-09-10T07:42:56.834Z,10.8
2018-09-10T07:43:57.808Z,10.75
2018-09-10T07:44:56.797Z,10.87
2018-09-10T07:45:56.905Z,10.81
2018-09-10T07:46:56.872Z,10.7
2018-09-10T07:47:56.795Z,10.68
2018-09-10T07:48:57.301Z,10.71
2018-09-10T07:49:56.821Z,10.73
2018-09-10T07:50:56.820Z,10.75
2018-09-10T07:51:56.839Z,10.67
2018-09-10T07:52:57.036Z,10.69
2018-09-10T07:53:56.813Z,10.79
2018-09-10T07:54:56.864Z,10.84
2018-09-10T07:55:57.131Z,10.81
2018-09-10T07:56:56.819Z,10.82
2018-09-10T07:57:56.825Z,10.82
2018-09-10T07:58:56.975Z,10.78
2018-09-10T07:59:57.281Z,10.78
2018-09-10T08:00:56.795Z,10.85
2018-09-10T08:01:56.825Z,10.89
2018-09-10T08:02:57.143Z,10.92
2018-09-10T08:03:57.221Z,10.96
2018-09-10T08:04:56.798Z,11
2018-09-10T08:05:56.807Z,11.01
2018-09-10T08:06:56.851Z,11.08
2018-09-10T08:07:56.822Z,10.96
2018-09-10T08:08:57.111Z,10.94
2018-09-10T08:09:56.829Z,11.02
2018-09-10T08:10:57.130Z,11.03
2018-09-10T08:11:57.442Z,11.05
2018-09-10T08:12:56.821Z,11.13
2018-09-10T08:13:56.844Z,11.2
2018-09-10T08:14:56.809Z,11.24
2018-09-10T08:15:57.026Z,11.14
2018-09-10T08:16:56.863Z,11.13
2018-09-10T08:17:56.824Z,11.1
2018-09-10T08:18:56.808Z,11.14
2018-09-10T08:19:57.081Z,11.14
2018-09-10T08:20:57.093Z,11.28
2018-09-10T08:21:56.813Z,11.31
2018-09-10T08:22:57.064Z,11.29
2018-09-10T08:23:56.991Z,11.39
2018-09-10T08:24:56.920Z,11.27
2018-09-10T08:25:56.879Z,11.26
2018-09-10T08:26:56.853Z,11.33
2018-09-10T08:27:56.818Z,11.35
2018-09-10T08:28:56.856Z,11.22
2018-09-10T08:29:56.788Z,11.2
2018-09-10T08:30:56.856Z,11.29
2018-09-10T08:31:57.070Z,11.29
2018-09-10T08:32:56.856Z,11.28
2018-09-10T08:33:57.547Z,11.3
2018-09-10T08:34:56.884Z,11.19
2018-09-10T08:35:57.021Z,11.38
2018-09-10T08:36:57.197Z,11.39
2018-09-10T08:37:56.859Z,11.07
2018-09-10T08:38:56.813Z,11.11
2018-09-10T08:39:56.860Z,11.29
2018-09-10T08:40:56.819Z,11.27
2018-09-10T08:41:56.821Z,11.23
2018-09-10T08:42:57.349Z,11.06
2018-09-10T08:43:56.828Z,11.25
2018-09-10T08:44:56.951Z,11.3
2018-09-10T08:45:57.163Z,11.29
2018-09-10T08:46:56.853Z,11.27
2018-09-10T08:47:56.809Z,11.44
2018-09-10T08:48:56.900Z,11.37
2018-09-10T08:49:56.815Z,11.39
2018-09-10T08:50:56.852Z,11.4
2018-09-10T08:51:57.073Z,11.35
2018-09-10T08:52:57.009Z,11.33
2018-09-10T08:53:57.346Z,11.48
2018-09-10T08:54:59.908Z,11.32
2018-09-10T08:55:58.534Z,11.42
2018-09-10T08:56:56.854Z,11.35
2018-09-10T08:57:56.851Z,11.4
2018-09-10T08:58:56.888Z,11.4
2018-09-10T08:59:57.013Z,11.37
2018-09-10T09:00:57.060Z,11.43
2018-09-10T09:01:57.360Z,11.34
2018-09-10T09:02:57.010Z,11.45
2018-09-10T09:03:56.842Z,11.41
2018-09-10T09:04:56.912Z,11.47
2018-09-10T09:05:57.178Z,11.42
2018-09-10T09:06:56.852Z,11.49
2018-09-10T09:07:57.316Z,11.49
2018-09-10T09:08:57.222Z,11.58
2018-09-10T09:09:56.830Z,11.8
2018-09-10T09:10:56.845Z,11.69
2018-09-10T09:11:56.919Z,11.74
2018-09-10T09:12:56.865Z,11.8
2018-09-10T09:13:57.098Z,11.77
2018-09-10T09:14:57.077Z,11.7
2018-09-10T09:15:56.930Z,11.52
2018-09-10T09:16:57.078Z,11.62
2018-09-10T09:17:56.878Z,11.6
2018-09-10T09:18:56.834Z,11.65
2018-09-10T09:19:57.015Z,11.78
2018-09-10T09:20:57.134Z,11.84
2018-09-10T09:21:57.237Z,11.8
2018-09-10T09:22:56.864Z,11.67
2018-09-10T09:23:56.900Z,11.75
2018-09-10T09:24:56.908Z,11.74
2018-09-10T09:25:56.869Z,11.68
2018-09-10T09:26:56.864Z,11.73
2018-09-10T09:27:58.508Z,11.58
2018-09-10T09:28:56.968Z,11.65
2018-09-10T09:29:57.481Z,11.68
2018-09-10T09:30:56.897Z,11.67
2018-09-10T09:31:57.047Z,11.73
2018-09-10T09:32:56.855Z,11.64
2018-09-10T09:33:57.029Z,11.71
2018-09-10T09:34:56.993Z,11.69
2018-09-10T09:35:56.898Z,11.73
2018-09-10T09:36:56.870Z,11.75
2018-09-10T09:37:57.215Z,11.78
2018-09-10T09:38:56.944Z,11.85
2018-09-10T09:39:56.874Z,11.82
2018-09-10T09:40:57.104Z,11.72
2018-09-10T09:41:57.035Z,11.83
2018-09-10T09:42:57.864Z,11.88
2018-09-10T09:43:57.093Z,11.93
2018-09-10T09:44:57.195Z,11.82
2018-09-10T09:45:56.962Z,11.84
2018-09-10T09:47:03.333Z,11.73
2018-09-10T09:47:56.863Z,11.79
2018-09-10T09:48:58.428Z,11.83
2018-09-10T09:49:57.077Z,11.82
2018-09-10T09:50:57.578Z,11.94
2018-09-10T09:51:56.939Z,11.65
2018-09-10T09:52:56.868Z,11.77
2018-09-10T09:53:56.873Z,11.73
2018-09-10T09:54:56.881Z,11.8
2018-09-10T09:55:57.163Z,11.81
2018-09-10T09:56:56.858Z,11.9
2018-09-10T09:57:56.954Z,12.09
2018-09-10T09:59:00.016Z,11.84
2018-09-10T09:59:56.997Z,12.04
2018-09-10T10:01:01.281Z,11.88
2018-09-10T10:01:57.073Z,11.82
2018-09-10T10:02:57.258Z,11.8
2018-09-10T10:03:57.390Z,11.88
2018-09-10T10:04:56.953Z,11.81
2018-09-10T10:05:57.218Z,11.8
2018-09-10T10:06:57.317Z,11.96
2018-09-10T10:07:56.943Z,12.02
2018-09-10T10:08:57.077Z,11.76
2018-09-10T10:09:59.701Z,11.9
2018-09-10T10:10:59.242Z,11.86
2018-09-10T10:11:57.248Z,11.89
2018-09-10T10:12:58.715Z,11.88
2018-09-10T10:13:57.081Z,11.72
2018-09-10T10:14:57.062Z,11.82
2018-09-10T10:15:56.898Z,11.91
2018-09-10T10:16:56.940Z,11.96
2018-09-10T10:17:56.887Z,11.88
2018-09-10T10:18:56.895Z,12.06
2018-09-10T10:19:56.890Z,12.04
2018-09-10T10:20:56.901Z,11.9
2018-09-10T10:21:57.150Z,11.92
2018-09-10T10:22:56.924Z,12.12
2018-09-10T10:23:57.000Z,12.13
2018-09-10T10:24:56.951Z,11.75
2018-09-10T10:25:56.967Z,11.72
2018-09-10T10:26:57.039Z,11.73
2018-09-10T10:27:56.938Z,11.75
2018-09-10T10:28:56.997Z,11.78
2018-09-10T10:29:57.018Z,12.06
2018-09-10T10:30:56.997Z,11.92
2018-09-10T10:31:56.928Z,11.96
2018-09-10T10:32:56.999Z,11.93
2018-09-10T10:33:56.974Z,11.93
2018-09-10T10:34:56.961Z,11.92
2018-09-10T10:35:57.719Z,11.26
2018-09-10T10:36:57.242Z,11.47
2018-09-10T10:37:56.903Z,11.5
2018-09-10T10:39:01.217Z,11.45
2018-09-10T10:39:57.100Z,11.51
2018-09-10T10:40:56.899Z,11.79
2018-09-10T10:41:56.981Z,11.48
2018-09-10T10:42:59.153Z,11.71
2018-09-10T10:43:57.049Z,11.72
2018-09-10T10:44:56.914Z,11.67
2018-09-10T10:45:57.036Z,11.25
2018-09-10T10:47:00.690Z,11.35
2018-09-10T10:47:57.021Z,11.16
2018-09-10T10:48:57.033Z,11.44
2018-09-10T10:50:06.041Z,11.3
2018-09-10T10:50:59.414Z,11.42
2018-09-10T10:51:57.546Z,11.61
2018-09-10T10:52:57.881Z,11.65
2018-09-10T10:53:58.010Z,11.56
2018-09-10T10:54:57.553Z,11.71
2018-09-10T10:55:57.030Z,11.54
2018-09-10T10:56:57.026Z,11.69
2018-09-10T10:57:57.572Z,11.94
2018-09-10T10:58:57.023Z,11.39
2018-09-10T10:59:56.949Z,11.34
2018-09-10T11:00:57.048Z,11.14
2018-09-10T11:01:57.143Z,11.08
2018-09-10T11:02:57.075Z,11.19
2018-09-10T11:03:57.192Z,11.12
2018-09-10T11:04:57.239Z,11.11
2018-09-10T11:05:57.024Z,11.24
2018-09-10T11:06:56.961Z,11.45
2018-09-10T11:07:56.909Z,11.48
2018-09-10T11:08:57.197Z,11.21
2018-09-10T11:09:57.564Z,11.35
2018-09-10T11:10:57.277Z,11.23
2018-09-10T11:11:56.964Z,11.28
2018-09-10T11:12:57.186Z,11.28
2018-09-10T11:13:57.789Z,11.29
2018-09-10T11:14:57.362Z,10.89
2018-09-10T11:15:56.995Z,10.87
2018-09-10T11:16:56.960Z,10.71
2018-09-10T11:17:57.025Z,10.88
2018-09-10T11:18:57.128Z,10.83
2018-09-10T11:19:56.952Z,10.92
2018-09-10T11:20:57.111Z,11.07
2018-09-10T11:21:57.057Z,11.05
2018-09-10T11:22:56.961Z,10.9
2018-09-10T11:23:57.118Z,10.85
2018-09-10T11:24:57.026Z,10.74
2018-09-10T11:25:57.480Z,10.82
2018-09-10T11:26:57.060Z,10.96
2018-09-10T11:27:57.106Z,11.28
2018-09-10T11:28:57.063Z,10.96
2018-09-10T11:29:57.081Z,11.35
2018-09-10T11:30:56.963Z,11.49
2018-09-10T11:31:57.066Z,11.35
2018-09-10T11:32:57.514Z,10.97
2018-09-10T11:33:57.044Z,10.47
2018-09-10T11:34:57.102Z,10.82
2018-09-10T11:35:57.075Z,10.93
2018-09-10T11:36:56.996Z,10.68
2018-09-10T11:37:57.224Z,10.87
2018-09-10T11:38:56.969Z,10.72
2018-09-10T11:39:56.952Z,11.22
2018-09-10T11:40:56.993Z,10.92
2018-09-10T11:41:57.147Z,10.87
2018-09-10T11:42:57.015Z,10.97
2018-09-10T11:43:57.063Z,10.27
2018-09-10T11:44:57.309Z,10.18
2018-09-10T11:45:57.087Z,9.96
2018-09-10T11:46:56.981Z,10.19
2018-09-10T11:47:57.142Z,10.51
2018-09-10T11:48:57.319Z,10.51
2018-09-10T11:49:56.984Z,10.5
2018-09-10T11:50:56.973Z,10.43
2018-09-10T11:51:56.965Z,10.2
2018-09-10T11:52:57.098Z,10.56
2018-09-10T11:53:57.527Z,10.49
2018-09-10T11:54:56.996Z,10.81
2018-09-10T11:55:57.081Z,11
2018-09-10T11:56:56.954Z,10.98
2018-09-10T11:57:57.126Z,10.63
2018-09-10T11:58:57.143Z,10.9
2018-09-10T11:59:57.031Z,10.99
2018-09-10T12:00:57.147Z,10.84
2018-09-10T12:01:57.245Z,10.8
2018-09-10T12:02:57.006Z,11.21
2018-09-10T12:03:57.099Z,10.58
2018-09-10T12:04:57.116Z,10.39
2018-09-10T12:05:57.179Z,10.44
2018-09-10T12:06:57.068Z,10.81
2018-09-10T12:07:57.218Z,10.79
2018-09-10T12:08:57.227Z,11.07
2018-09-10T12:09:57.053Z,10.54
2018-09-10T12:10:57.096Z,11.02
2018-09-10T12:11:57.242Z,10.78
2018-09-10T12:12:57.110Z,10.82
2018-09-10T12:13:57.967Z,11.04
2018-09-10T12:14:57.098Z,11.16
2018-09-10T12:15:56.999Z,10.97
2018-09-10T12:16:57.072Z,10.65
2018-09-10T12:17:57.123Z,10.86
2018-09-10T12:18:57.086Z,10.76
2018-09-10T12:19:57.103Z,10.75
2018-09-10T12:20:57.075Z,10.77
2018-09-10T12:21:57.152Z,11.03
2018-09-10T12:22:57.332Z,10.88
2018-09-10T12:23:57.493Z,11.05
2018-09-10T12:24:57.060Z,11.16
2018-09-10T12:25:57.098Z,11.02
2018-09-10T12:26:57.039Z,11.12
2018-09-10T12:27:57.193Z,11.18
2018-09-10T12:28:57.115Z,10.86
2018-09-10T12:29:57.092Z,10.94
2018-09-10T12:30:57.323Z,11.02
2018-09-10T12:31:57.411Z,11.35
2018-09-10T12:32:57.138Z,11.41
2018-09-10T12:33:57.006Z,11.31
2018-09-10T12:34:57.070Z,11.6
2018-09-10T12:35:57.044Z,11.3
2018-09-10T12:36:57.076Z,11.27
2018-09-10T12:37:57.017Z,11.32
2018-09-10T12:38:57.618Z,11.46
2018-09-10T12:39:57.309Z,11.35
2018-09-10T12:40:57.199Z,11.32
2018-09-10T12:41:57.103Z,11.52
2018-09-10T12:42:57.013Z,11.4
2018-09-10T12:43:57.053Z,11.62
2018-09-10T12:44:57.599Z,11.54
2018-09-10T12:45:57.184Z,11.28
2018-09-10T12:46:57.150Z,11.31
2018-09-10T12:47:57.190Z,11.52
2018-09-10T12:48:57.401Z,11.66
2018-09-10T12:49:57.222Z,11.46
2018-09-10T12:50:57.004Z,11.52
2018-09-10T12:51:57.060Z,10.62
2018-09-10T12:52:57.001Z,11.43
2018-09-10T12:53:57.095Z,11.17
2018-09-10T12:54:57.033Z,11.01
2018-09-10T12:55:57.134Z,11.05
2018-09-10T12:56:57.683Z,11.1
2018-09-10T12:57:57.067Z,11.48
2018-09-10T12:58:57.543Z,11.34
2018-09-10T12:59:57.016Z,10.83
2018-09-10T13:00:57.020Z,10.9
2018-09-10T13:01:57.038Z,11.41
2018-09-10T13:02:57.005Z,11.53
2018-09-10T13:03:57.079Z,11.39
2018-09-10T13:04:57.013Z,11.18
2018-09-10T13:05:57.010Z,11.43
2018-09-10T13:06:57.035Z,11.31
2018-09-10T13:07:57.200Z,11.64
2018-09-10T13:08:57.022Z,10.71
2018-09-10T13:09:57.029Z,10.91